Terminal Aerodrome Forecast
Issued by NWS

Home | Current Version | Previous Version | Graphics & Text | Print | Product List | Glossary On
Versions: 1 2 3 4 5 6 7 8 9 10 11 12 13 14 15 16 17 18 19 20
000
FTUS43 KGRB 281508 AAB
TAFATW
TAF AMD
KATW 281508Z 2815/0112 14005KT 1SM BR VCSH OVC003
      TEMPO 2817/2819 1/2SM -RA FG OVC002
     FM282200 01008KT 1 1/2SM -RA BR OVC006
      TEMPO 2822/0102 1/2SM FG OVC003
     FM010500 01014G22KT 2SM -RA BR OVC006
     FM011000 01014G22KT 2SM -SN OVC006=

USA.gov is the U.S. government's official web portal to all federal, state and local government web resources and services.